Time;durP1;ratioP1;P1;durP2;ratioP2;P2;SDS_P1;SDS_P2;PMS_P1;PMS_P2;Temp;Humidity;BMP_temperature;BMP_pressure;BME280_temperature;BME280_humidity;BME280_pressure;Samples;Min_cycle;Max_cycle;Signal;HPM_P1;HPM_P2
2021/10/14 00:01:37;;;;;;;2.20;0.57;;;22.60;43.80;;;;;;4915439;29;20043;-46
2021/10/14 00:04:04;;;;;;;1.50;0.57;;;22.60;43.80;;;;;;4915373;29;20052;-47
2021/10/14 00:06:31;;;;;;;2.10;0.88;;;22.60;43.70;;;;;;4914972;29;20449;-46
2021/10/14 00:08:58;;;;;;;1.55;0.85;;;22.60;43.70;;;;;;4913481;29;20055;-46
2021/10/14 00:11:25;;;;;;;4.30;0.57;;;22.60;43.70;;;;;;4915240;29;20047;-46
2021/10/14 00:13:53;;;;;;;1.60;0.77;;;22.60;43.70;;;;;;4915443;29;20091;-47
2021/10/14 00:16:21;;;;;;;1.45;0.40;;;22.60;43.70;;;;;;4915144;29;20048;-49
2021/10/14 00:18:48;;;;;;;2.58;0.40;;;22.60;43.70;;;;;;4915207;29;20058;-46
2021/10/14 00:21:15;;;;;;;1.20;1.10;;;22.60;43.80;;;;;;4911332;29;20052;-48
2021/10/14 00:23:42;;;;;;;2.92;0.80;;;22.60;43.80;;;;;;4925987;29;20060;-46
2021/10/14 00:26:09;;;;;;;0.75;0.52;;;22.60;43.80;;;;;;4917739;29;20552;-46
2021/10/14 00:28:36;;;;;;;2.17;1.38;;;22.60;43.70;;;;;;4905783;29;20131;-45
2021/10/14 00:31:03;;;;;;;1.65;0.45;;;22.60;43.70;;;;;;4926740;29;20051;-45
2021/10/14 00:33:31;;;;;;;0.52;0.40;;;22.60;43.70;;;;;;4914206;29;20508;-46
2021/10/14 00:35:58;;;;;;;7.75;0.60;;;22.60;43.70;;;;;;4913030;29;20118;-45
2021/10/14 00:38:25;;;;;;;1.58;0.40;;;22.60;43.60;;;;;;4914783;29;20134;-47
2021/10/14 00:40:52;;;;;;;1.10;0.77;;;22.60;43.50;;;;;;4914860;29;20040;-48
2021/10/14 00:43:19;;;;;;;1.20;0.57;;;22.60;43.50;;;;;;4915742;29;20048;-49
2021/10/14 00:45:46;;;;;;;2.05;0.43;;;22.60;43.50;;;;;;4914928;29;20043;-47
2021/10/14 00:48:13;;;;;;;6.22;0.45;;;22.70;43.50;;;;;;4911637;29;20048;-46
2021/10/14 00:50:42;;;;;;;2.95;0.50;;;22.60;43.50;;;;;;4917957;29;20048;-46
2021/10/14 00:53:10;;;;;;;3.70;0.70;;;22.60;43.50;;;;;;4925226;29;20071;-47
2021/10/14 00:55:37;;;;;;;2.33;1.00;;;22.60;43.40;;;;;;4926523;29;20051;-45
2021/10/14 00:58:04;;;;;;;4.20;0.30;;;22.70;43.50;;;;;;4919105;29;20092;-46
2021/10/14 01:00:31;;;;;;;1.58;0.50;;;22.60;43.40;;;;;;4917977;29;20040;-48
2021/10/14 01:02:58;;;;;;;1.10;0.40;;;22.60;43.40;;;;;;4916693;29;20051;-49
2021/10/14 01:05:25;;;;;;;3.55;0.55;;;22.60;43.40;;;;;;4918613;29;20044;-48
2021/10/14 01:07:54;;;;;;;1.50;0.32;;;22.60;43.40;;;;;;4918218;29;20040;-48
2021/10/14 01:10:21;;;;;;;1.13;0.32;;;22.60;43.30;;;;;;4922849;29;20044;-46
2021/10/14 01:12:50;;;;;;;2.00;0.40;;;22.60;43.30;;;;;;4918610;29;20058;-46
2021/10/14 01:15:22;;;;;;;2.08;0.52;;;22.70;43.40;;;;;;4916303;29;20052;-45
2021/10/14 01:17:49;;;;;;;0.82;0.30;;;22.70;43.80;;;;;;4916018;29;20044;-45
2021/10/14 01:20:17;;;;;;;0.82;0.60;;;22.60;43.40;;;;;;4913141;29;20040;-46
2021/10/14 01:22:44;;;;;;;0.30;0.30;;;22.70;43.40;;;;;;4922052;29;20055;-47
2021/10/14 01:25:11;;;;;;;1.85;0.50;;;22.60;43.40;;;;;;4928565;29;20060;-45
2021/10/14 01:27:38;;;;;;;0.98;0.60;;;22.60;43.40;;;;;;4915032;29;20040;-46
2021/10/14 01:30:07;;;;;;;1.75;0.20;;;22.70;43.50;;;;;;4920059;29;20051;-48
2021/10/14 01:32:35;;;;;;;1.00;0.25;;;22.70;43.50;;;;;;4917585;29;20561;-46
2021/10/14 01:35:03;;;;;;;1.95;0.52;;;22.60;43.50;;;;;;4918164;29;20399;-50
2021/10/14 01:37:32;;;;;;;0.30;0.20;;;22.70;43.50;;;;;;4917507;29;20040;-47
2021/10/14 01:39:59;;;;;;;1.13;0.17;;;22.60;43.50;;;;;;4919973;29;20040;-44
2021/10/14 01:42:26;;;;;;;0.63;0.22;;;22.60;43.50;;;;;;4917698;29;20044;-46
2021/10/14 01:44:53;;;;;;;0.52;0.47;;;22.60;43.50;;;;;;4916874;29;20051;-48
2021/10/14 01:47:20;;;;;;;1.58;0.30;;;22.60;43.50;;;;;;4917845;29;20040;-47
2021/10/14 01:49:47;;;;;;;0.43;0.20;;;22.60;43.50;;;;;;4916527;29;20044;-45
2021/10/14 01:52:14;;;;;;;0.52;0.52;;;22.60;43.50;;;;;;4917362;29;20051;-44
2021/10/14 01:54:43;;;;;;;1.00;0.30;;;22.60;43.50;;;;;;4915393;29;20628;-48
2021/10/14 01:57:10;;;;;;;1.65;0.85;;;22.60;43.50;;;;;;4914841;29;20052;-49
2021/10/14 01:59:37;;;;;;;1.60;0.20;;;22.60;43.60;;;;;;4918171;29;20056;-46
2021/10/14 02:02:04;;;;;;;0.60;0.20;;;22.50;43.50;;;;;;4917232;29;20413;-46
2021/10/14 02:04:31;;;;;;;0.30;0.30;;;22.60;43.50;;;;;;4917787;29;20042;-45
2021/10/14 02:06:58;;;;;;;1.42;0.98;;;22.60;43.50;;;;;;4917646;29;20082;-47
2021/10/14 02:09:25;;;;;;;3.85;0.30;;;22.50;43.40;;;;;;4916236;29;20453;-46
2021/10/14 02:11:53;;;;;;;2.38;0.20;;;22.60;43.50;;;;;;4916740;29;20420;-46
2021/10/14 02:14:21;;;;;;;2.13;0.38;;;22.50;43.40;;;;;;4917571;29;20047;-46
2021/10/14 02:16:48;;;;;;;1.30;0.30;;;22.60;43.50;;;;;;4909870;29;20559;-46
2021/10/14 02:19:15;;;;;;;1.25;0.10;;;22.60;43.40;;;;;;4928126;29;20051;-46
2021/10/14 02:21:42;;;;;;;0.60;0.43;;;22.60;43.40;;;;;;4917121;29;20052;-46
2021/10/14 02:24:09;;;;;;;0.80;0.22;;;22.60;43.40;;;;;;4928695;29;20043;-46
2021/10/14 02:26:36;;;;;;;0.20;0.20;;;22.50;43.30;;;;;;4918758;29;20072;-48
2021/10/14 02:29:05;;;;;;;1.27;0.30;;;22.60;43.40;;;;;;4917033;29;20409;-46
2021/10/14 02:31:32;;;;;;;1.98;0.30;;;22.60;43.30;;;;;;4917137;29;20040;-49
2021/10/14 02:33:59;;;;;;;0.60;0.30;;;22.50;43.20;;;;;;4917268;29;20119;-47
2021/10/14 02:36:26;;;;;;;0.85;0.20;;;22.50;43.30;;;;;;4915316;29;20036;-48
2021/10/14 02:38:53;;;;;;;0.90;0.43;;;22.60;43.30;;;;;;4915811;29;20055;-47
2021/10/14 02:41:20;;;;;;;0.40;0.40;;;22.50;43.30;;;;;;4917068;29;20127;-46
2021/10/14 02:43:47;;;;;;;1.65;0.28;;;22.50;43.20;;;;;;4916855;29;20040;-46
2021/10/14 02:46:15;;;;;;;1.30;0.20;;;22.50;43.20;;;;;;4917406;29;20051;-46
2021/10/14 02:48:42;;;;;;;1.23;0.35;;;22.50;43.20;;;;;;4917238;29;20040;-48
2021/10/14 02:51:09;;;;;;;3.15;0.20;;;22.50;43.20;;;;;;4913798;29;20048;-46
2021/10/14 02:53:37;;;;;;;0.88;0.30;;;22.50;43.20;;;;;;4927434;29;20048;-49
2021/10/14 02:56:04;;;;;;;1.05;0.20;;;22.50;43.20;;;;;;4920749;29;20036;-49
2021/10/14 02:58:31;;;;;;;0.82;0.20;;;22.50;43.20;;;;;;4916556;29;20505;-46
2021/10/14 03:00:59;;;;;;;0.82;0.20;;;22.50;43.20;;;;;;4916725;29;20074;-47
2021/10/14 03:03:27;;;;;;;0.43;0.20;;;22.50;43.10;;;;;;4915344;29;20123;-48
2021/10/14 03:05:54;;;;;;;0.93;0.10;;;22.50;43.10;;;;;;4915289;29;20054;-48
2021/10/14 03:08:21;;;;;;;1.20;0.20;;;22.50;43.10;;;;;;4916331;29;20048;-46
2021/10/14 03:10:48;;;;;;;0.98;0.10;;;22.50;43.10;;;;;;4916696;29;20044;-46
2021/10/14 03:13:15;;;;;;;1.02;0.22;;;22.50;43.10;;;;;;4916847;29;20036;-47
2021/10/14 03:15:42;;;;;;;0.75;0.10;;;22.50;43.00;;;;;;4921582;29;20052;-47
2021/10/14 03:18:09;;;;;;;0.40;0.10;;;22.50;43.00;;;;;;4912978;29;20075;-47
2021/10/14 03:20:38;;;;;;;0.38;0.20;;;22.50;43.00;;;;;;4916623;29;20137;-48
2021/10/14 03:23:05;;;;;;;1.05;0.15;;;22.50;43.00;;;;;;4922144;29;20040;-49
2021/10/14 03:25:32;;;;;;;5.78;0.17;;;22.50;43.00;;;;;;4924696;29;20087;-45
2021/10/14 03:27:59;;;;;;;0.38;0.38;;;22.50;43.00;;;;;;4916339;29;20054;-47
2021/10/14 03:30:26;;;;;;;1.60;0.50;;;22.50;43.10;;;;;;4914648;29;20793;-47
2021/10/14 03:32:52;;;;;;;1.95;0.30;;;22.50;43.10;;;;;;4914689;29;20604;-45
2021/10/14 03:35:19;;;;;;;2.33;0.10;;;22.50;43.10;;;;;;4915952;29;20063;-46
2021/10/14 03:37:48;;;;;;;0.30;0.10;;;22.50;43.70;;;;;;4915931;29;20052;-46
2021/10/14 03:40:15;;;;;;;0.20;0.10;;;22.50;43.10;;;;;;4926341;29;20050;-46
2021/10/14 03:42:42;;;;;;;2.97;0.43;;;22.40;43.10;;;;;;4916364;29;20528;-46
2021/10/14 03:45:10;;;;;;;0.30;0.20;;;22.40;43.10;;;;;;4913024;29;20036;-47
2021/10/14 03:47:36;;;;;;;1.27;0.25;;;22.50;43.20;;;;;;4916055;29;20509;-46
2021/10/14 03:50:04;;;;;;;0.50;0.45;;;22.40;43.20;;;;;;4915842;29;20470;-46
2021/10/14 03:52:31;;;;;;;0.60;0.20;;;22.50;43.30;;;;;;4917730;29;20048;-48
2021/10/14 03:55:00;;;;;;;0.75;0.45;;;22.40;43.30;;;;;;4928050;29;20158;-48
2021/10/14 03:57:27;;;;;;;7.13;0.28;;;22.50;43.30;;;;;;4912187;29;22987;-46
2021/10/14 03:59:54;;;;;;;0.68;0.40;;;22.40;43.30;;;;;;4917456;29;20107;-47
2021/10/14 04:02:21;;;;;;;0.43;0.10;;;22.40;43.20;;;;;;4917229;29;20040;-47
2021/10/14 04:04:48;;;;;;;0.40;0.20;;;22.40;43.20;;;;;;4923016;29;20051;-46
2021/10/14 04:07:15;;;;;;;0.57;0.13;;;22.40;43.20;;;;;;4925999;29;20042;-46
2021/10/14 04:09:42;;;;;;;1.00;0.10;;;22.40;43.20;;;;;;4915520;29;20043;-47
2021/10/14 04:12:10;;;;;;;1.65;0.20;;;22.40;43.30;;;;;;4912563;29;20044;-47
2021/10/14 04:14:37;;;;;;;0.63;0.10;;;22.40;43.20;;;;;;4916688;29;20044;-46
2021/10/14 04:17:04;;;;;;;6.93;0.10;;;22.40;43.20;;;;;;4915033;29;20040;-46
2021/10/14 04:19:31;;;;;;;0.10;0.10;;;22.40;43.20;;;;;;4915825;29;20413;-47
2021/10/14 04:21:58;;;;;;;0.17;0.10;;;22.40;43.20;;;;;;4924943;29;20044;-46
2021/10/14 04:24:26;;;;;;;0.25;0.10;;;22.40;43.30;;;;;;4928644;29;20123;-46
2021/10/14 04:26:53;;;;;;;0.10;0.10;;;22.40;43.30;;;;;;4913988;29;20660;-47
2021/10/14 04:29:22;;;;;;;0.40;0.10;;;22.40;43.30;;;;;;4915005;29;20131;-45
2021/10/14 04:31:49;;;;;;;0.35;0.20;;;22.40;43.20;;;;;;4915323;29;20048;-46
2021/10/14 04:34:17;;;;;;;0.52;0.13;;;22.40;43.20;;;;;;4914972;29;20058;-49
2021/10/14 04:36:44;;;;;;;0.20;0.10;;;22.40;43.20;;;;;;4895420;29;20043;-46
2021/10/14 04:39:11;;;;;;;0.90;0.10;;;22.40;43.20;;;;;;4915147;29;20048;-46
2021/10/14 04:41:38;;;;;;;0.30;0.10;;;22.40;43.80;;;;;;4915259;29;20059;-49
2021/10/14 04:44:06;;;;;;;0.93;0.20;;;22.40;43.20;;;;;;4914980;29;20135;-46
2021/10/14 04:46:34;;;;;;;0.98;0.10;;;22.40;43.20;;;;;;4914592;29;20572;-46
2021/10/14 04:49:01;;;;;;;0.47;0.20;;;22.40;43.10;;;;;;4914878;29;20044;-46
2021/10/14 04:51:28;;;;;;;0.45;0.20;;;22.40;43.20;;;;;;4913761;29;20058;-46
2021/10/14 04:53:55;;;;;;;1.05;0.10;;;22.40;43.20;;;;;;4925013;29;20048;-47
2021/10/14 04:56:22;;;;;;;0.40;0.10;;;22.40;43.20;;;;;;4915742;29;20048;-46
2021/10/14 04:58:50;;;;;;;0.40;0.28;;;22.40;43.20;;;;;;4915712;29;20596;-46
2021/10/14 05:01:16;;;;;;;0.10;0.10;;;22.40;43.20;;;;;;4914422;29;20044;-46
2021/10/14 05:03:45;;;;;;;0.90;0.20;;;22.40;43.10;;;;;;4914864;29;20044;-46
2021/10/14 05:06:12;;;;;;;1.58;0.17;;;22.40;43.10;;;;;;4919687;29;20048;-49
2021/10/14 05:08:39;;;;;;;0.10;0.10;;;22.40;43.10;;;;;;4921037;29;20143;-46
2021/10/14 05:11:10;;;;;;;0.22;0.10;;;22.40;43.10;;;;;;4914824;29;20090;-46
2021/10/14 05:13:37;;;;;;;0.40;0.35;;;22.40;43.10;;;;;;4914757;29;20059;-47
2021/10/14 05:16:06;;;;;;;0.85;0.35;;;22.40;43.10;;;;;;4914736;29;20039;-46
2021/10/14 05:18:33;;;;;;;0.60;0.10;;;22.40;43.10;;;;;;4914190;29;20040;-47
2021/10/14 05:21:02;;;;;;;0.93;0.20;;;22.40;43.10;;;;;;4928520;29;20040;-47
2021/10/14 05:23:29;;;;;;;0.30;0.10;;;22.40;43.10;;;;;;4924455;29;20059;-48
2021/10/14 05:25:57;;;;;;;1.58;0.65;;;22.40;43.00;;;;;;4919282;29;20138;-48
2021/10/14 05:28:24;;;;;;;0.70;0.30;;;22.40;43.00;;;;;;4914510;29;20060;-48
2021/10/14 05:30:51;;;;;;;0.90;0.20;;;22.40;43.00;;;;;;4914652;29;20048;-45
2021/10/14 05:33:18;;;;;;;0.40;0.10;;;22.30;42.90;;;;;;4912082;29;20139;-49
2021/10/14 05:35:46;;;;;;;0.55;0.30;;;22.40;43.00;;;;;;4914124;29;20502;-49
2021/10/14 05:38:14;;;;;;;1.58;0.57;;;22.30;42.90;;;;;;4918471;29;20044;-45
2021/10/14 05:40:42;;;;;;;1.30;0.20;;;22.40;43.00;;;;;;4918390;29;20039;-47
2021/10/14 05:43:09;;;;;;;0.82;0.50;;;22.30;43.00;;;;;;4917491;29;20083;-46
2021/10/14 05:45:37;;;;;;;1.23;0.10;;;22.30;42.90;;;;;;4931048;29;20091;-46
2021/10/14 05:48:04;;;;;;;1.10;0.38;;;22.40;43.00;;;;;;4915593;29;20044;-45
2021/10/14 05:50:31;;;;;;;0.98;0.30;;;22.40;43.00;;;;;;4917737;29;20048;-45
2021/10/14 05:52:58;;;;;;;1.42;0.30;;;22.30;42.90;;;;;;4929628;29;20050;-45
2021/10/14 05:55:27;;;;;;;0.43;0.20;;;22.30;42.90;;;;;;4932400;29;20385;-45
2021/10/14 05:57:54;;;;;;;1.73;0.30;;;22.30;42.90;;;;;;4930988;29;20047;-46
2021/10/14 06:00:22;;;;;;;0.55;0.20;;;22.30;43.00;;;;;;4932241;29;20056;-45
2021/10/14 06:02:49;;;;;;;2.15;0.20;;;22.30;42.90;;;;;;4930542;29;20456;-46
2021/10/14 06:05:16;;;;;;;4.30;0.50;;;22.30;42.90;;;;;;4927720;29;20497;-48
2021/10/14 06:07:43;;;;;;;1.05;0.40;;;22.30;42.80;;;;;;4928928;29;20046;-45
2021/10/14 06:10:10;;;;;;;1.75;0.20;;;22.30;42.90;;;;;;4928406;29;20040;-49
2021/10/14 06:12:39;;;;;;;3.33;0.17;;;22.30;42.90;;;;;;4926639;29;20246;-46
2021/10/14 06:15:07;;;;;;;2.40;0.65;;;22.30;43.00;;;;;;4933725;29;20083;-47
2021/10/14 06:17:34;;;;;;;1.25;0.60;;;22.30;43.50;;;;;;4929728;29;20047;-46
2021/10/14 06:20:01;;;;;;;0.85;0.20;;;22.30;43.30;;;;;;4927430;29;20063;-45
2021/10/14 06:22:28;;;;;;;7.82;0.40;;;22.30;43.40;;;;;;4928415;29;20040;-47
2021/10/14 06:24:56;;;;;;;0.52;0.50;;;22.20;43.50;;;;;;4929505;29;20152;-46
2021/10/14 06:27:23;;;;;;;1.25;0.20;;;22.10;43.50;;;;;;4927368;29;20146;-46
2021/10/14 06:29:51;;;;;;;0.60;0.20;;;22.10;43.70;;;;;;4931810;29;20497;-45
2021/10/14 06:32:18;;;;;;;2.55;0.38;;;22.00;43.70;;;;;;4926972;29;20039;-47
2021/10/14 06:34:45;;;;;;;1.48;0.22;;;22.00;43.90;;;;;;4928111;29;20114;-47
2021/10/14 06:37:12;;;;;;;0.60;0.30;;;21.90;44.00;;;;;;4926801;29;20043;-48
2021/10/14 06:39:39;;;;;;;1.55;0.20;;;21.90;44.10;;;;;;4928440;29;20052;-48
2021/10/14 06:42:06;;;;;;;2.92;0.40;;;21.80;44.20;;;;;;4928821;29;20040;-44
2021/10/14 06:44:34;;;;;;;8.68;0.93;;;21.70;44.30;;;;;;4930127;29;20074;-45
2021/10/14 06:47:02;;;;;;;0.95;0.30;;;21.80;44.70;;;;;;4925778;29;20357;-53
2021/10/14 06:49:29;;;;;;;5.80;0.30;;;21.70;45.50;;;;;;4926807;29;20071;-60
2021/10/14 06:51:56;;;;;;;4.00;0.60;;;21.70;45.10;;;;;;4929397;29;20039;-62
2021/10/14 06:54:24;;;;;;;15.43;5.15;;;21.60;45.80;;;;;;4929178;29;20508;-56
2021/10/14 06:56:51;;;;;;;10.35;2.45;;;21.60;45.90;;;;;;4928979;29;20572;-55
2021/10/14 06:59:18;;;;;;;4.55;2.03;;;21.50;46.20;;;;;;4918794;29;20055;-52
2021/10/14 07:01:45;;;;;;;7.82;2.35;;;21.50;46.40;;;;;;4900472;29;20120;-54
2021/10/14 07:04:14;;;;;;;9.63;1.92;;;21.50;46.40;;;;;;4917651;29;20123;-52
2021/10/14 07:06:42;;;;;;;16.23;1.95;;;21.40;46.30;;;;;;4914009;29;20131;-58
2021/10/14 07:09:09;;;;;;;12.82;1.55;;;21.40;46.90;;;;;;4930967;29;20052;-55
2021/10/14 07:11:42;;;;;;;11.52;2.35;;;21.40;49.30;;;;;;4917618;29;20044;-55
2021/10/14 07:14:11;;;;;;;6.60;1.20;;;21.40;50.30;;;;;;4899873;29;20087;-56
2021/10/14 07:16:38;;;;;;;4.10;1.27;;;21.40;50.90;;;;;;4916332;29;20050;-55
2021/10/14 07:19:05;;;;;;;8.10;2.05;;;21.40;51.80;;;;;;4916292;29;20123;-55
2021/10/14 07:21:34;;;;;;;9.82;1.85;;;21.40;52.30;;;;;;4915832;29;20048;-55
2021/10/14 07:24:01;;;;;;;7.95;1.05;;;21.40;52.50;;;;;;4927605;29;20139;-54
2021/10/14 07:26:28;;;;;;;6.10;1.30;;;21.40;52.40;;;;;;4915302;29;20044;-52
2021/10/14 07:28:56;;;;;;;7.53;1.02;;;21.40;51.90;;;;;;4925821;29;20040;-54
2021/10/14 07:31:24;;;;;;;8.80;1.23;;;21.40;51.50;;;;;;4925075;29;20048;-55
2021/10/14 07:33:51;;;;;;;6.25;1.98;;;21.30;51.20;;;;;;4916234;29;20155;-56
2021/10/14 07:36:18;;;;;;;4.78;1.38;;;21.30;51.10;;;;;;4914130;29;20056;-55
2021/10/14 07:38:47;;;;;;;6.32;1.95;;;21.30;51.00;;;;;;4915733;29;20040;-55
2021/10/14 07:41:14;;;;;;;10.98;2.63;;;21.30;51.50;;;;;;4916129;29;20142;-55
2021/10/14 07:43:41;;;;;;;5.25;1.20;;;21.30;51.40;;;;;;4916074;29;20112;-56
2021/10/14 07:46:09;;;;;;;7.68;1.58;;;21.30;50.80;;;;;;4916378;29;20143;-55
2021/10/14 07:48:36;;;;;;;3.80;0.73;;;21.30;50.20;;;;;;4916151;29;20385;-55
2021/10/14 07:51:03;;;;;;;8.57;1.52;;;21.30;50.70;;;;;;4913774;29;20111;-53
2021/10/14 07:53:31;;;;;;;4.65;0.70;;;21.20;50.50;;;;;;4922850;29;20050;-54
2021/10/14 07:55:59;;;;;;;3.53;1.42;;;21.20;50.60;;;;;;4920397;29;20119;-55
2021/10/14 07:58:26;;;;;;;3.38;1.10;;;21.20;50.40;;;;;;4915986;29;20131;-55
2021/10/14 08:00:54;;;;;;;2.22;0.63;;;21.20;50.30;;;;;;4914961;29;20508;-54
2021/10/14 08:03:21;;;;;;;5.65;0.93;;;21.20;50.30;;;;;;4913818;29;20055;-54
2021/10/14 08:05:48;;;;;;;2.17;0.70;;;21.20;50.30;;;;;;4913339;29;20394;-54
2021/10/14 08:08:15;;;;;;;4.05;0.88;;;21.20;50.20;;;;;;4911532;29;20082;-53
2021/10/14 08:10:42;;;;;;;6.05;0.57;;;21.20;50.20;;;;;;4915928;29;20044;-57
2021/10/14 08:13:14;;;;;;;4.30;0.75;;;21.20;50.10;;;;;;4915613;29;20044;-52
2021/10/14 08:15:42;;;;;;;2.15;1.05;;;21.20;50.10;;;;;;4915296;29;20050;-53
2021/10/14 08:18:09;;;;;;;5.93;1.50;;;21.20;50.00;;;;;;4912723;29;20109;-53
2021/10/14 08:20:36;;;;;;;4.32;0.85;;;21.20;50.00;;;;;;4915897;29;20056;-54
2021/10/14 08:23:04;;;;;;;7.47;1.13;;;21.20;49.90;;;;;;4920854;29;20035;-55
2021/10/14 08:25:31;;;;;;;1.67;0.98;;;21.20;49.80;;;;;;4923331;29;20143;-55
2021/10/14 08:27:58;;;;;;;2.72;0.98;;;21.20;49.80;;;;;;4915542;29;20402;-53
2021/10/14 08:30:26;;;;;;;3.22;1.13;;;21.20;49.70;;;;;;4913666;29;20044;-55
2021/10/14 08:33:13;;;;;;;2.75;0.50;;;21.20;49.60;;;;;;4927484;29;20055;-54
2021/10/14 08:35:41;;;;;;;2.40;0.88;;;21.20;49.60;;;;;;4916948;29;20063;-51
2021/10/14 08:38:11;;;;;;;2.28;0.40;;;21.20;49.50;;;;;;4914991;29;20127;-53
2021/10/14 08:40:39;;;;;;;2.28;1.25;;;21.20;49.40;;;;;;4915405;29;20052;-50
2021/10/14 08:43:09;;;;;;;3.28;1.33;;;21.20;49.40;;;;;;4915133;29;20127;-53
2021/10/14 08:45:40;;;;;;;2.58;0.63;;;21.20;49.20;;;;;;4915087;29;20051;-52
2021/10/14 08:48:08;;;;;;;4.50;0.77;;;21.20;49.20;;;;;;4916084;29;20402;-53
2021/10/14 08:50:37;;;;;;;3.35;1.45;;;21.20;49.10;;;;;;4912533;29;20072;-54
2021/10/14 08:53:04;;;;;;;4.38;1.58;;;21.20;49.00;;;;;;4916880;29;20044;-53
2021/10/14 08:55:34;;;;;;;6.35;1.35;;;21.20;49.00;;;;;;4922931;29;20048;-53
2021/10/14 08:58:01;;;;;;;2.35;0.60;;;21.30;49.00;;;;;;4915146;29;20060;-54
2021/10/14 09:00:28;;;;;;;3.58;0.82;;;21.30;48.90;;;;;;4913683;29;20075;-55
2021/10/14 09:02:57;;;;;;;4.40;0.93;;;21.30;48.80;;;;;;4913492;29;20044;-55
2021/10/14 09:05:24;;;;;;;2.78;0.60;;;21.30;48.70;;;;;;4915007;29;20040;-55
2021/10/14 09:07:51;;;;;;;4.30;1.20;;;21.30;48.60;;;;;;4914330;29;20227;-55
2021/10/14 09:10:18;;;;;;;5.15;1.00;;;21.30;48.50;;;;;;4914958;29;20060;-52
2021/10/14 09:12:47;;;;;;;3.75;1.90;;;21.30;48.50;;;;;;4918034;29;20036;-55
2021/10/14 09:15:16;;;;;;;1.88;0.98;;;21.30;48.40;;;;;;4916226;29;20439;-55
2021/10/14 09:17:48;;;;;;;3.28;1.10;;;21.30;48.30;;;;;;4918310;29;20131;-54
2021/10/14 09:20:41;;;;;;;4.78;0.95;;;21.40;48.30;;;;;;4918378;29;20757;-55
2021/10/14 09:23:12;;;;;;;1.35;0.70;;;21.40;48.10;;;;;;4912800;29;20106;-56
2021/10/14 09:25:41;;;;;;;3.03;0.95;;;21.40;48.80;;;;;;4925294;29;20052;-55
2021/10/14 09:28:12;;;;;;;2.70;0.80;;;21.40;48.10;;;;;;4918426;29;20040;-55
2021/10/14 09:31:03;;;;;;;3.67;1.83;;;21.40;48.00;;;;;;4918569;29;20054;-56
2021/10/14 09:33:36;;;;;;;5.00;1.65;;;21.40;47.90;;;;;;4909071;29;20453;-53
2021/10/14 09:36:30;;;;;;;3.08;1.55;;;21.40;47.90;;;;;;4915744;29;20050;-55
2021/10/14 09:39:02;;;;;;;9.93;1.25;;;21.40;47.70;;;;;;4933088;29;20500;-54
2021/10/14 09:41:30;;;;;;;3.35;1.20;;;21.40;47.80;;;;;;4918569;29;20044;-55
2021/10/14 09:44:04;;;;;;;2.70;1.23;;;21.40;47.70;;;;;;4922270;29;20036;-55
2021/10/14 09:46:38;;;;;;;2.05;1.10;;;21.40;47.60;;;;;;4925949;29;20048;-53
2021/10/14 09:49:07;;;;;;;5.22;2.10;;;21.50;47.60;;;;;;4918083;29;20149;-54
2021/10/14 09:51:36;;;;;;;2.05;1.40;;;21.40;47.40;;;;;;4917194;29;20142;-55
2021/10/14 09:54:03;;;;;;;8.70;2.08;;;21.50;47.40;;;;;;4930643;29;20075;-54
2021/10/14 09:56:32;;;;;;;11.30;2.28;;;21.50;47.30;;;;;;4918015;29;20040;-56
2021/10/14 09:59:01;;;;;;;3.10;1.50;;;21.50;47.20;;;;;;4917935;29;20056;-54
2021/10/14 10:01:30;;;;;;;2.28;2.00;;;21.50;47.20;;;;;;4917902;29;20068;-54
2021/10/14 10:03:58;;;;;;;4.03;1.77;;;21.50;47.10;;;;;;4917618;29;20051;-53
2021/10/14 10:06:27;;;;;;;4.22;1.23;;;21.50;47.10;;;;;;4916305;29;20048;-55
2021/10/14 10:08:57;;;;;;;1.92;1.33;;;21.50;46.90;;;;;;4916472;29;20060;-55
2021/10/14 10:11:27;;;;;;;2.50;1.25;;;21.60;46.90;;;;;;4918130;29;20123;-52
2021/10/14 10:13:57;;;;;;;1.05;0.70;;;21.60;46.80;;;;;;4917813;29;20052;-54
2021/10/14 10:16:25;;;;;;;5.53;1.35;;;21.60;46.80;;;;;;4917794;29;20437;-54
2021/10/14 10:18:53;;;;;;;3.28;0.85;;;21.60;46.70;;;;;;4917341;29;20035;-52
2021/10/14 10:21:43;;;;;;;2.65;1.58;;;21.70;46.70;;;;;;4915687;29;20137;-54
2021/10/14 10:24:31;;;;;;;3.70;1.73;;;21.60;46.50;;;;;;4928899;29;20052;-54
2021/10/14 10:27:01;;;;;;;3.97;1.63;;;21.70;46.50;;;;;;4915203;29;20040;-53
2021/10/14 10:29:47;;;;;;;8.77;2.13;;;21.60;46.60;;;;;;4913660;29;20136;-52
2021/10/14 10:32:24;;;;;;;;;;;21.70;46.30;;;;;;4918415;29;20429;-50
2021/10/14 10:37:44;;;;;;;1.75;0.95;;;21.60;46.40;;;;;;4918107;29;20075;-54
2021/10/14 10:40:21;;;;;;;2.10;1.10;;;21.60;46.30;;;;;;4915773;29;20465;-55
2021/10/14 10:42:53;;;;;;;2.13;0.52;;;21.70;46.20;;;;;;4931493;29;20040;-55
2021/10/14 10:45:23;;;;;;;2.95;0.57;;;21.70;46.10;;;;;;4915739;29;20044;-52
2021/10/14 10:47:57;;;;;;;2.92;1.13;;;21.70;46.00;;;;;;4918532;29;20107;-54
2021/10/14 10:50:26;;;;;;;1.10;0.73;;;21.80;46.00;;;;;;4917200;29;20051;-55
2021/10/14 10:53:05;;;;;;;1.42;0.65;;;21.80;46.00;;;;;;4917335;29;20047;-52
2021/10/14 10:55:48;;;;;;;4.65;0.40;;;21.80;45.90;;;;;;4917236;29;20066;-54
2021/10/14 10:58:16;;;;;;;1.90;0.90;;;21.80;45.80;;;;;;4916947;29;20044;-52
2021/10/14 11:00:45;;;;;;;0.80;0.80;;;21.80;45.70;;;;;;4914220;29;20067;-54
2021/10/14 11:03:18;;;;;;;1.70;0.52;;;21.90;45.70;;;;;;4916458;29;20084;-53
2021/10/14 11:05:51;;;;;;;3.13;1.17;;;21.90;45.60;;;;;;4916617;29;20603;-52
2021/10/14 11:08:21;;;;;;;5.07;0.35;;;21.90;45.40;;;;;;4916580;29;20040;-55
2021/10/14 11:10:54;;;;;;;1.58;0.43;;;22.00;45.40;;;;;;4916988;29;20095;-55
2021/10/14 11:13:22;;;;;;;1.27;0.55;;;22.00;45.20;;;;;;4916806;29;20046;-55
2021/10/14 11:15:52;;;;;;;1.98;0.63;;;22.00;45.10;;;;;;4914872;29;20495;-54
2021/10/14 11:18:20;;;;;;;1.35;0.60;;;22.10;45.00;;;;;;4929035;29;20071;-54
2021/10/14 11:20:53;;;;;;;2.53;0.40;;;22.20;44.90;;;;;;4916107;29;20432;-53
2021/10/14 11:23:21;;;;;;;1.52;0.60;;;22.20;44.70;;;;;;4924427;29;20138;-54
2021/10/14 11:26:03;;;;;;;3.30;0.38;;;22.20;44.60;;;;;;4922310;29;20039;-50
2021/10/14 11:28:31;;;;;;;2.53;0.38;;;22.30;44.40;;;;;;4916404;29;20101;-52
2021/10/14 11:31:00;;;;;;;1.30;0.57;;;22.30;44.40;;;;;;4916335;29;20036;-53
2021/10/14 11:33:32;;;;;;;1.45;0.25;;;22.40;44.30;;;;;;4939440;29;20530;-53
2021/10/14 11:36:02;;;;;;;1.55;0.28;;;22.40;44.20;;;;;;4914400;29;20103;-54
2021/10/14 11:38:29;;;;;;;1.75;0.35;;;22.40;44.10;;;;;;4915860;29;20055;-54
2021/10/14 11:40:57;;;;;;;0.68;0.28;;;22.50;44.10;;;;;;4919967;29;20048;-55
2021/10/14 11:43:26;;;;;;;2.60;0.30;;;22.50;44.00;;;;;;4925236;29;20525;-55
2021/10/14 11:45:54;;;;;;;0.80;0.40;;;22.60;43.90;;;;;;4899095;29;20066;-55
2021/10/14 11:48:32;;;;;;;4.20;0.85;;;22.60;43.80;;;;;;4912467;29;20446;-53
2021/10/14 11:51:04;;;;;;;1.77;0.45;;;22.70;43.70;;;;;;4914125;29;20052;-52
2021/10/14 11:53:31;;;;;;;0.50;0.30;;;22.70;43.70;;;;;;4925479;29;20527;-54
2021/10/14 11:56:00;;;;;;;1.52;0.63;;;22.70;43.60;;;;;;4920684;29;20047;-54
2021/10/14 11:58:28;;;;;;;3.17;0.35;;;22.70;43.50;;;;;;4915596;29;20119;-54
2021/10/14 12:01:00;;;;;;;6.72;0.25;;;22.80;43.50;;;;;;4915468;29;20047;-53
2021/10/14 12:03:28;;;;;;;2.47;1.13;;;22.80;43.40;;;;;;4913003;29;20070;-54
2021/10/14 12:05:55;;;;;;;1.80;0.20;;;22.80;43.30;;;;;;4914434;29;20055;-55
2021/10/14 12:08:23;;;;;;;2.20;0.35;;;22.90;43.30;;;;;;4915556;29;20074;-54
2021/10/14 12:10:54;;;;;;;2.58;1.15;;;22.90;43.20;;;;;;4915635;29;20115;-55
2021/10/14 12:13:29;;;;;;;2.90;0.10;;;22.90;43.10;;;;;;4915531;29;20059;-55
2021/10/14 12:16:08;;;;;;;3.90;0.30;;;23.00;43.10;;;;;;4915599;29;20508;-55
2021/10/14 12:18:35;;;;;;;1.83;0.20;;;23.00;43.00;;;;;;4915351;29;20531;-55
2021/10/14 12:21:05;;;;;;;1.55;0.20;;;23.00;43.00;;;;;;4913363;29;20535;-55
2021/10/14 12:23:32;;;;;;;0.65;0.10;;;23.10;43.00;;;;;;4925054;29;20102;-53
2021/10/14 12:26:13;;;;;;;3.30;0.93;;;23.10;43.00;;;;;;4919982;29;20040;-54
2021/10/14 12:28:44;;;;;;;1.98;0.93;;;23.20;42.90;;;;;;4915475;29;20073;-54
2021/10/14 12:31:13;;;;;;;2.20;0.30;;;23.10;42.80;;;;;;4915213;29;20052;-53
2021/10/14 12:33:40;;;;;;;0.95;0.32;;;23.20;42.80;;;;;;4915515;29;20040;-53
2021/10/14 12:36:08;;;;;;;6.00;0.40;;;23.20;42.80;;;;;;4912685;29;20820;-55
2021/10/14 12:38:38;;;;;;;1.58;0.20;;;23.20;42.70;;;;;;4912414;29;20525;-50
2021/10/14 12:41:07;;;;;;;1.85;0.88;;;23.20;42.70;;;;;;4911528;29;20091;-57
2021/10/14 12:43:46;;;;;;;4.20;0.60;;;23.30;42.70;;;;;;4915240;29;20607;-53
2021/10/14 12:46:34;;;;;;;1.33;0.43;;;23.30;42.70;;;;;;4914947;29;20067;-56
2021/10/14 12:49:27;;;;;;;1.13;0.40;;;23.30;42.60;;;;;;4914307;29;20048;-55
2021/10/14 12:51:54;;;;;;;3.75;0.10;;;23.30;42.60;;;;;;4917397;29;20505;-55
2021/10/14 12:54:24;;;;;;;3.90;0.50;;;23.30;42.60;;;;;;4929733;29;20044;-56
2021/10/14 12:56:53;;;;;;;0.85;0.38;;;23.40;42.60;;;;;;4914467;29;20076;-55
2021/10/14 12:59:21;;;;;;;5.03;0.57;;;23.40;42.60;;;;;;4915486;29;20576;-53